createdAt,value
2024-03-13T15:10:47.683Z,14.49
2024-03-13T15:13:52.642Z,14.40
2024-03-13T15:16:55.539Z,14.34
2024-03-13T15:19:58.485Z,14.33
2024-03-13T15:23:01.363Z,14.26
2024-03-13T15:26:04.440Z,14.09
2024-03-13T15:29:07.451Z,14.06
2024-03-13T15:32:10.485Z,14.06
2024-03-13T15:35:15.421Z,13.95
2024-03-13T15:38:19.381Z,13.81
2024-03-13T15:41:22.276Z,13.82
2024-03-13T15:44:27.599Z,13.66
2024-03-13T15:47:30.516Z,13.56
2024-03-13T15:50:36.705Z,13.54
2024-03-13T15:53:44.340Z,13.43
2024-03-13T15:56:48.257Z,13.45
2024-03-13T15:59:51.219Z,13.46
2024-03-13T16:03:01.873Z,13.42
2024-03-13T16:06:04.897Z,13.31
2024-03-13T16:09:11.667Z,13.31
2024-03-13T16:12:14.968Z,13.21
2024-03-13T16:15:18.128Z,13.25
2024-03-13T16:18:21.290Z,13.15
2024-03-13T16:21:26.303Z,13.10
2024-03-13T16:24:29.467Z,13.15
2024-03-13T16:27:32.613Z,13.09
2024-03-13T16:30:35.503Z,13.04
2024-03-13T16:33:38.432Z,13.03
2024-03-13T16:36:41.819Z,12.92
2024-03-13T16:39:44.660Z,12.80
2024-03-13T16:42:48.050Z,12.68
2024-03-13T16:45:51.837Z,12.50
2024-03-13T16:48:55.899Z,12.42
2024-03-13T16:51:58.903Z,12.38
2024-03-13T16:55:02.036Z,12.36
2024-03-13T16:58:06.587Z,12.30
2024-03-13T17:01:09.637Z,12.27
2024-03-13T17:04:16.268Z,12.22
2024-03-13T17:07:19.825Z,12.05
2024-03-13T17:10:23.540Z,11.99
2024-03-13T17:13:27.156Z,12.00
2024-03-13T17:16:30.958Z,12.02
2024-03-13T17:19:33.865Z,11.95
